HBLMB LSZR-LFSB
Flight info
| Callsign | HBLMB |
|---|---|
| Flight time | 0h 31m |
| Altitude | 10000 |
| Route | DCT |
| Aircraft | DA42/L-SBDGRY/S |
Departure
| Time | 2026-04-16 13:44 |
|---|---|
| Airport | Sankt Gallen Altenrhein Airport (LSZR) |
Arrival
| Time | 2026-04-16 14:15 |
|---|---|
| Airport | EuroAirport Basel–Mulhouse–Freiburg (LFSB) |
| Time | Latitude | Longitude | Altitude | Speed | Heading |
|---|---|---|---|---|---|
| 2026-04-16 13:27 | 47.48762 | 9.55336 | 1309 ft | 0 kts | 242° |
| 2026-04-16 13:34 | 47.48752 | 9.55339 | 1309 ft | 6 kts | 134° |
| 2026-04-16 13:35 | 47.48722 | 9.55452 | 1310 ft | 13 kts | 98° |
| 2026-04-16 13:35 | 47.48711 | 9.55582 | 1310 ft | 13 kts | 97° |
| 2026-04-16 13:35 | 47.48696 | 9.55714 | 1310 ft | 14 kts | 97° |
| 2026-04-16 13:35 | 47.48672 | 9.55948 | 1310 ft | 30 kts | 99° |
| 2026-04-16 13:36 | 47.48637 | 9.56288 | 1310 ft | 32 kts | 99° |
| 2026-04-16 13:36 | 47.48603 | 9.56574 | 1309 ft | 25 kts | 99° |
| 2026-04-16 13:36 | 47.48589 | 9.56728 | 1309 ft | 24 kts | 97° |
| 2026-04-16 13:36 | 47.48569 | 9.56946 | 1310 ft | 20 kts | 98° |
| 2026-04-16 13:37 | 47.48523 | 9.57083 | 1310 ft | 14 kts | 183° |
| 2026-04-16 13:37 | 47.48473 | 9.57075 | 1310 ft | 0 kts | 186° |
| 2026-04-16 13:40 | 47.48518 | 9.57083 | 1309 ft | 8 kts | 186° |
| 2026-04-16 13:40 | 47.48540 | 9.57057 | 1310 ft | 0 kts | 92° |
| 2026-04-16 13:41 | 47.48498 | 9.57081 | 1310 ft | 10 kts | 184° |
| 2026-04-16 13:41 | 47.48429 | 9.57067 | 1311 ft | 9 kts | 193° |
| 2026-04-16 13:41 | 47.48404 | 9.57017 | 1311 ft | 0 kts | 275° |
| 2026-04-16 13:43 | 47.48432 | 9.56771 | 1309 ft | 57 kts | 279° |
| 2026-04-16 13:43 | 47.48511 | 9.55980 | 1380 ft | 89 kts | 280° |
| 2026-04-16 13:43 | 47.48586 | 9.55097 | 1745 ft | 87 kts | 277° |
| 2026-04-16 13:44 | 47.48628 | 9.54205 | 2136 ft | 86 kts | 276° |
| 2026-04-16 13:44 | 47.48685 | 9.53273 | 2438 ft | 101 kts | 275° |
| 2026-04-16 13:44 | 47.48808 | 9.52177 | 2661 ft | 116 kts | 292° |
| 2026-04-16 13:44 | 47.49336 | 9.51340 | 3005 ft | 112 kts | 340° |
| 2026-04-16 13:45 | 47.49969 | 9.50570 | 3192 ft | 126 kts | 307° |
| 2026-04-16 13:45 | 47.50499 | 9.49409 | 3199 ft | 145 kts | 304° |
| 2026-04-16 13:45 | 47.51076 | 9.48108 | 3227 ft | 155 kts | 305° |
| 2026-04-16 13:45 | 47.51657 | 9.46773 | 3426 ft | 154 kts | 304° |
| 2026-04-16 13:46 | 47.52241 | 9.45430 | 3494 ft | 159 kts | 304° |
| 2026-04-16 13:46 | 47.52849 | 9.44016 | 3491 ft | 165 kts | 305° |
| 2026-04-16 13:46 | 47.53464 | 9.42585 | 3491 ft | 168 kts | 304° |
| 2026-04-16 13:46 | 47.54093 | 9.41117 | 3490 ft | 169 kts | 304° |
| 2026-04-16 13:47 | 47.54727 | 9.39643 | 3488 ft | 170 kts | 305° |
| 2026-04-16 13:47 | 47.55378 | 9.38167 | 3486 ft | 171 kts | 306° |
| 2026-04-16 13:47 | 47.56008 | 9.36675 | 3470 ft | 173 kts | 294° |
| 2026-04-16 13:47 | 47.56177 | 9.34936 | 3581 ft | 169 kts | 273° |
| 2026-04-16 13:48 | 47.56184 | 9.33215 | 3705 ft | 165 kts | 271° |
| 2026-04-16 13:48 | 47.56203 | 9.31522 | 3833 ft | 163 kts | 273° |
| 2026-04-16 13:48 | 47.56238 | 9.29848 | 3958 ft | 162 kts | 274° |
| 2026-04-16 13:48 | 47.56278 | 9.28171 | 3973 ft | 168 kts | 274° |
| 2026-04-16 13:49 | 47.56321 | 9.26420 | 3972 ft | 170 kts | 274° |
| 2026-04-16 13:49 | 47.56362 | 9.24663 | 3972 ft | 171 kts | 274° |
| 2026-04-16 13:49 | 47.56404 | 9.22899 | 3981 ft | 171 kts | 274° |
| 2026-04-16 13:49 | 47.56446 | 9.21124 | 3981 ft | 173 kts | 274° |
| 2026-04-16 13:50 | 47.56487 | 9.19339 | 3979 ft | 174 kts | 274° |
| 2026-04-16 13:50 | 47.56528 | 9.17569 | 3981 ft | 175 kts | 274° |
| 2026-04-16 13:50 | 47.56569 | 9.15763 | 3978 ft | 175 kts | 273° |
| 2026-04-16 13:50 | 47.56609 | 9.13961 | 3978 ft | 175 kts | 273° |
| 2026-04-16 13:51 | 47.56651 | 9.12161 | 3979 ft | 174 kts | 273° |
| 2026-04-16 13:51 | 47.56691 | 9.10359 | 3979 ft | 176 kts | 274° |
| 2026-04-16 13:51 | 47.56730 | 9.08553 | 3977 ft | 176 kts | 274° |
| 2026-04-16 13:51 | 47.56770 | 9.06741 | 3976 ft | 176 kts | 273° |
| 2026-04-16 13:52 | 47.56811 | 9.04933 | 3977 ft | 176 kts | 273° |
| 2026-04-16 13:52 | 47.56850 | 9.03122 | 3976 ft | 176 kts | 273° |
| 2026-04-16 13:52 | 47.56888 | 9.01315 | 3975 ft | 175 kts | 273° |
| 2026-04-16 13:52 | 47.56927 | 8.99529 | 3976 ft | 176 kts | 273° |
| 2026-04-16 13:53 | 47.56967 | 8.97713 | 3974 ft | 176 kts | 273° |
| 2026-04-16 13:53 | 47.57004 | 8.95904 | 3972 ft | 175 kts | 273° |
| 2026-04-16 13:53 | 47.57041 | 8.94104 | 3972 ft | 174 kts | 273° |
| 2026-04-16 13:53 | 47.57078 | 8.92309 | 3971 ft | 174 kts | 273° |
| 2026-04-16 13:54 | 47.57116 | 8.90507 | 3970 ft | 175 kts | 273° |
| 2026-04-16 13:54 | 47.57153 | 8.88703 | 3974 ft | 176 kts | 274° |
| 2026-04-16 13:54 | 47.57192 | 8.86885 | 3970 ft | 176 kts | 272° |
| 2026-04-16 13:54 | 47.57227 | 8.85087 | 3970 ft | 176 kts | 273° |
| 2026-04-16 13:55 | 47.57263 | 8.83269 | 3974 ft | 177 kts | 273° |
| 2026-04-16 13:55 | 47.57300 | 8.81432 | 3974 ft | 178 kts | 273° |
| 2026-04-16 13:55 | 47.57336 | 8.79589 | 3971 ft | 178 kts | 272° |
| 2026-04-16 13:55 | 47.57372 | 8.77810 | 3969 ft | 163 kts | 273° |
| 2026-04-16 13:56 | 47.57405 | 8.76083 | 3974 ft | 172 kts | 272° |
| 2026-04-16 13:56 | 47.57437 | 8.74286 | 3970 ft | 176 kts | 272° |
| 2026-04-16 13:56 | 47.57473 | 8.72469 | 3969 ft | 177 kts | 273° |
| 2026-04-16 13:56 | 47.57508 | 8.70639 | 3967 ft | 177 kts | 272° |
| 2026-04-16 13:57 | 47.57543 | 8.68814 | 3964 ft | 176 kts | 272° |
| 2026-04-16 13:57 | 47.57576 | 8.67029 | 3965 ft | 175 kts | 272° |
| 2026-04-16 13:57 | 47.57609 | 8.65224 | 3964 ft | 175 kts | 272° |
| 2026-04-16 13:58 | 47.57674 | 8.61623 | 3963 ft | 174 kts | 272° |
| 2026-04-16 13:58 | 47.57707 | 8.59823 | 3963 ft | 175 kts | 272° |
| 2026-04-16 13:58 | 47.57740 | 8.58020 | 3966 ft | 175 kts | 272° |
| 2026-04-16 13:58 | 47.57772 | 8.56211 | 3964 ft | 176 kts | 272° |
| 2026-04-16 13:59 | 47.57803 | 8.54403 | 3963 ft | 175 kts | 272° |
| 2026-04-16 13:59 | 47.57833 | 8.52601 | 3964 ft | 175 kts | 272° |
| 2026-04-16 13:59 | 47.57865 | 8.50798 | 3961 ft | 174 kts | 272° |
| 2026-04-16 13:59 | 47.57896 | 8.49021 | 3963 ft | 174 kts | 272° |
| 2026-04-16 14:00 | 47.57926 | 8.47238 | 3981 ft | 172 kts | 272° |
| 2026-04-16 14:00 | 47.57955 | 8.45460 | 3988 ft | 173 kts | 272° |
| 2026-04-16 14:00 | 47.57985 | 8.43672 | 4001 ft | 174 kts | 272° |
| 2026-04-16 14:00 | 47.58014 | 8.41877 | 4003 ft | 174 kts | 272° |
| 2026-04-16 14:01 | 47.58044 | 8.40076 | 4001 ft | 175 kts | 272° |
| 2026-04-16 14:01 | 47.58073 | 8.38292 | 4005 ft | 176 kts | 272° |
| 2026-04-16 14:01 | 47.58102 | 8.36483 | 3995 ft | 175 kts | 271° |
| 2026-04-16 14:01 | 47.58130 | 8.34686 | 3995 ft | 174 kts | 271° |
| 2026-04-16 14:02 | 47.58158 | 8.32900 | 3993 ft | 173 kts | 271° |
| 2026-04-16 14:02 | 47.58186 | 8.31120 | 3995 ft | 173 kts | 271° |
| 2026-04-16 14:02 | 47.58213 | 8.29341 | 3994 ft | 173 kts | 271° |
| 2026-04-16 14:02 | 47.58240 | 8.27563 | 3994 ft | 173 kts | 271° |
| 2026-04-16 14:03 | 47.58266 | 8.25788 | 3992 ft | 172 kts | 271° |
| 2026-04-16 14:03 | 47.58293 | 8.24012 | 3992 ft | 172 kts | 271° |
| 2026-04-16 14:03 | 47.58320 | 8.22236 | 3993 ft | 173 kts | 271° |
| 2026-04-16 14:03 | 47.58345 | 8.20458 | 3993 ft | 173 kts | 271° |
| 2026-04-16 14:04 | 47.58371 | 8.18678 | 3994 ft | 173 kts | 271° |
| 2026-04-16 14:04 | 47.58396 | 8.16903 | 3995 ft | 172 kts | 271° |
| 2026-04-16 14:04 | 47.58421 | 8.15126 | 3995 ft | 172 kts | 271° |
| 2026-04-16 14:04 | 47.58446 | 8.13353 | 3995 ft | 172 kts | 271° |
| 2026-04-16 14:05 | 47.58410 | 8.11581 | 3994 ft | 172 kts | 264° |
| 2026-04-16 14:05 | 47.58276 | 8.09816 | 3995 ft | 172 kts | 263° |
| 2026-04-16 14:05 | 47.58134 | 8.08055 | 3994 ft | 172 kts | 263° |
| 2026-04-16 14:05 | 47.57993 | 8.06318 | 3994 ft | 172 kts | 263° |
| 2026-04-16 14:06 | 47.57849 | 8.04561 | 3988 ft | 172 kts | 263° |
| 2026-04-16 14:06 | 47.57706 | 8.02799 | 3989 ft | 172 kts | 263° |
| 2026-04-16 14:06 | 47.57562 | 8.01038 | 3988 ft | 172 kts | 263° |
| 2026-04-16 14:06 | 47.57419 | 7.99280 | 3991 ft | 172 kts | 263° |
| 2026-04-16 14:07 | 47.57273 | 7.97511 | 3991 ft | 173 kts | 263° |
| 2026-04-16 14:07 | 47.57128 | 7.95743 | 3990 ft | 173 kts | 263° |
| 2026-04-16 14:07 | 47.56985 | 7.94000 | 3989 ft | 172 kts | 263° |
| 2026-04-16 14:07 | 47.56841 | 7.92237 | 3989 ft | 172 kts | 263° |
| 2026-04-16 14:08 | 47.56696 | 7.90477 | 3988 ft | 172 kts | 263° |
| 2026-04-16 14:08 | 47.56551 | 7.88718 | 3988 ft | 173 kts | 263° |
| 2026-04-16 14:08 | 47.56405 | 7.86951 | 3988 ft | 173 kts | 263° |
| 2026-04-16 14:08 | 47.56258 | 7.85183 | 3987 ft | 173 kts | 263° |
| 2026-04-16 14:09 | 47.56112 | 7.83420 | 3987 ft | 173 kts | 263° |
| 2026-04-16 14:09 | 47.55967 | 7.81656 | 3986 ft | 173 kts | 263° |
| 2026-04-16 14:09 | 47.55822 | 7.79891 | 3987 ft | 172 kts | 263° |
| 2026-04-16 14:09 | 47.55668 | 7.78124 | 3948 ft | 174 kts | 262° |
| 2026-04-16 14:10 | 47.55665 | 7.76334 | 3913 ft | 175 kts | 276° |
| 2026-04-16 14:10 | 47.55821 | 7.74560 | 3945 ft | 172 kts | 278° |
| 2026-04-16 14:10 | 47.56002 | 7.72836 | 3949 ft | 172 kts | 280° |
| 2026-04-16 14:10 | 47.56208 | 7.71079 | 3932 ft | 173 kts | 281° |
| 2026-04-16 14:11 | 47.56558 | 7.69365 | 3827 ft | 177 kts | 293° |
| 2026-04-16 14:11 | 47.57169 | 7.67762 | 3655 ft | 179 kts | 303° |
| 2026-04-16 14:11 | 47.57843 | 7.66311 | 3451 ft | 162 kts | 306° |
| 2026-04-16 14:11 | 47.58521 | 7.64999 | 3146 ft | 158 kts | 307° |
| 2026-04-16 14:12 | 47.59184 | 7.63742 | 2945 ft | 150 kts | 308° |
| 2026-04-16 14:12 | 47.59814 | 7.62557 | 2740 ft | 140 kts | 308° |
| 2026-04-16 14:12 | 47.60391 | 7.61453 | 2445 ft | 136 kts | 306° |
| 2026-04-16 14:12 | 47.60939 | 7.60261 | 2195 ft | 141 kts | 301° |
| 2026-04-16 14:13 | 47.61394 | 7.58973 | 1974 ft | 142 kts | 295° |
| 2026-04-16 14:13 | 47.61437 | 7.57585 | 1836 ft | 137 kts | 253° |
| 2026-04-16 14:13 | 47.61005 | 7.56571 | 1718 ft | 95 kts | 225° |
| 2026-04-16 14:13 | 47.60505 | 7.55996 | 1542 ft | 90 kts | 205° |
| 2026-04-16 14:14 | 47.59916 | 7.55611 | 1419 ft | 96 kts | 204° |
| 2026-04-16 14:14 | 47.59394 | 7.55009 | 1192 ft | 95 kts | 234° |
| 2026-04-16 14:14 | 47.59185 | 7.54139 | 959 ft | 83 kts | 258° |
| 2026-04-16 14:14 | 47.59060 | 7.53379 | 885 ft | 66 kts | 256° |
| 2026-04-16 14:15 | 47.58995 | 7.52994 | 883 ft | 29 kts | 254° |
| 2026-04-16 14:15 | 47.59100 | 7.52841 | 886 ft | 20 kts | 335° |
| 2026-04-16 14:15 | 47.59250 | 7.52738 | 885 ft | 33 kts | 335° |
| 2026-04-16 14:15 | 47.59419 | 7.52651 | 885 ft | 13 kts | 36° |
| 2026-04-16 14:16 | 47.59455 | 7.52754 | 884 ft | 11 kts | 64° |
| 2026-04-16 14:16 | 47.59514 | 7.52843 | 884 ft | 18 kts | 359° |
| 2026-04-16 14:16 | 47.59622 | 7.52775 | 884 ft | 16 kts | 334° |
| 2026-04-16 14:16 | 47.59751 | 7.52685 | 884 ft | 21 kts | 334° |
| 2026-04-16 14:17 | 47.59873 | 7.52602 | 884 ft | 18 kts | 335° |
| 2026-04-16 14:17 | 47.59995 | 7.52517 | 884 ft | 26 kts | 335° |
| 2026-04-16 14:17 | 47.60094 | 7.52449 | 884 ft | 22 kts | 335° |
| 2026-04-16 14:17 | 47.60214 | 7.52471 | 884 ft | 11 kts | 22° |
| 2026-04-16 14:18 | 47.60260 | 7.52496 | 884 ft | 10 kts | 19° |
| 2026-04-16 14:18 | 47.60291 | 7.52527 | 884 ft | 4 kts | 318° |
| 2026-04-16 14:18 | 47.60292 | 7.52526 | 884 ft | 0 kts | 317° |